Current Weather Conditions: station PRTA2

sailwx.info

Wind from 230 at 2 knots gusting 13

Air temperature 0.7° C
Dewpoint -3.5° C

Last reported at 2020-Apr-07 15:10 UTC.
Time now 2020-Apr-07 16:49 UTC

Location: N 58°25' W 134°57'.
View on Google Maps.

See reports from other nearby stations

  
Tides and Currents Weather Stations Pressure Air Temp Water Temp Dewpoint Dewpoint Depression Visibility Wind Speed Wind Dir Waves Ship Positions
date/time (UTC)wind fromknots sea level pressurealtimeterstation pressurevisibilityair tempwater tempwave heightnotes
2020-Apr-07 15:10 230 2 gusting 13 0.7
2020-Apr-07 14:10 150 2 gusting 6 0.2
2020-Apr-07 13:10 150 6 gusting 8 -0.0
2020-Apr-07 12:10 220 5 gusting 12 -0.5
2020-Apr-07 11:10 220 6 gusting 18 0.9
2020-Apr-07 10:10 220 2 gusting 11 1.1
2020-Apr-07 09:10 200 5 gusting 20 0.9
2020-Apr-07 08:10 240 9 gusting 19 1.2
2020-Apr-07 07:10 220 11 gusting 21 1.4
2020-Apr-07 06:10 200 2 gusting 13 0.9
2020-Apr-07 05:10 210 5 gusting 12 1.4
2020-Apr-07 04:10 250 6 gusting 15 1.6
2020-Apr-07 03:10 240 13 gusting 20 2.1
2020-Apr-07 02:10 250 18 gusting 24 3.1
2020-Apr-07 01:10 250 24 gusting 32 3.1
2020-Apr-07 00:10 240 18 gusting 24 3.9
2020-Apr-06 23:10 250 22 gusting 32 3.5
2020-Apr-06 22:10 250 25 gusting 34 4.2
2020-Apr-06 21:10 260 27 gusting 34 3.8
2020-Apr-06 20:10 250 20 gusting 29 5.2
2020-Apr-06 19:10 240 14 gusting 24 4.6
2020-Apr-06 18:10 230 13 gusting 22 3.9
2020-Apr-06 17:10 230 13 gusting 33 4.0
2020-Apr-06 16:10 240 18 gusting 28 3.4
2020-Apr-06 15:10 230 18 gusting 29 3.2
2020-Apr-06 14:10 200 4 gusting 13 2.8
2020-Apr-06 13:10 180 4 gusting 13 2.9
2020-Apr-06 12:10 220 6 gusting 15 3.6
2020-Apr-06 11:10 180 4 gusting 12 3.6
2020-Apr-06 10:10 170 4 gusting 11 3.6
2020-Apr-06 09:10 140 5 gusting 8 3.2
2020-Apr-06 08:10 150 6 gusting 12 3.0
2020-Apr-06 07:10 150 5 gusting 12 3.3
2020-Apr-06 06:10 140 4 gusting 6 3.6
2020-Apr-06 05:10 140 4 gusting 7 3.7
2020-Apr-06 04:10 160 2 gusting 9 3.9
2020-Apr-06 03:10 180 1 gusting 5 3.8
2020-Apr-06 02:10 230 5 gusting 7 4.2
2020-Apr-06 01:10 210 4 gusting 6 5.0
2020-Apr-06 00:10 190 1 gusting 6 5.3
2020-Apr-05 23:10 230 5 gusting 9 4.9
2020-Apr-05 22:10 220 4 gusting 11 5.8
2020-Apr-05 21:10 210 2 gusting 6 4.7
2020-Apr-05 20:10 150 2 gusting 6 3.7
2020-Apr-05 19:10 140 1 gusting 9 3.7
2020-Apr-05 18:10 180 0 gusting 5 3.4
2020-Apr-05 17:10 150 0 gusting 5 1.9
2020-Apr-05 16:10 130 2 gusting 6 1.4